createdAt,value
2023-10-05T00:01:37.967Z,3.17
2023-10-05T00:04:23.251Z,3.19
2023-10-05T00:07:08.767Z,3.49
2023-10-05T00:09:54.287Z,3.30
2023-10-05T00:12:39.651Z,3.45
2023-10-05T00:15:25.350Z,3.40
2023-10-05T00:18:10.236Z,3.26
2023-10-05T00:20:55.798Z,3.28
2023-10-05T00:23:41.285Z,3.32
2023-10-05T00:26:26.990Z,3.07
2023-10-05T00:29:12.112Z,3.33
2023-10-05T00:31:57.627Z,3.08
2023-10-05T00:34:42.912Z,3.32
2023-10-05T00:37:28.156Z,3.31
2023-10-05T00:40:13.860Z,3.14
2023-10-05T00:42:59.178Z,3.26
2023-10-05T00:45:44.715Z,3.33
2023-10-05T00:48:29.994Z,3.14
2023-10-05T00:51:14.957Z,3.14
2023-10-05T00:54:00.271Z,3.17
2023-10-05T00:56:45.778Z,3.33
2023-10-05T00:59:31.410Z,3.21
2023-10-05T01:02:17.236Z,3.32
2023-10-05T01:05:02.524Z,3.19
2023-10-05T01:07:48.252Z,3.30
2023-10-05T01:10:33.948Z,3.20
2023-10-05T01:13:19.286Z,3.43
2023-10-05T01:16:04.806Z,3.26
2023-10-05T01:18:50.100Z,3.38
2023-10-05T01:21:35.474Z,3.25
2023-10-05T01:24:20.892Z,3.62
2023-10-05T01:27:06.316Z,3.37
2023-10-05T01:29:51.762Z,3.34
2023-10-05T01:32:37.398Z,3.39
2023-10-05T01:35:22.884Z,3.39
2023-10-05T01:38:08.177Z,3.29
2023-10-05T01:40:53.866Z,3.08
2023-10-05T01:43:39.270Z,3.35
2023-10-05T01:46:24.852Z,3.32
2023-10-05T01:49:10.402Z,3.29
2023-10-05T01:51:55.794Z,3.26
2023-10-05T01:54:41.381Z,3.33
2023-10-05T01:57:26.810Z,3.41
2023-10-05T02:00:11.984Z,3.48
2023-10-05T02:02:57.586Z,3.32
2023-10-05T02:05:43.208Z,3.34
2023-10-05T02:08:28.383Z,3.41
2023-10-05T02:11:13.698Z,3.06
2023-10-05T02:13:58.685Z,3.47
2023-10-05T02:16:43.830Z,3.14
2023-10-05T02:19:29.202Z,3.24
2023-10-05T02:22:14.782Z,3.24
2023-10-05T02:25:00.155Z,3.41
2023-10-05T02:27:45.647Z,3.26
2023-10-05T02:30:30.640Z,3.32
2023-10-05T02:33:15.685Z,3.39
2023-10-05T02:36:00.913Z,3.20
2023-10-05T02:38:46.373Z,3.24
2023-10-05T02:41:31.277Z,3.43
2023-10-05T02:44:16.140Z,3.21
2023-10-05T02:47:01.684Z,3.33
2023-10-05T02:49:47.023Z,3.36
2023-10-05T02:52:31.991Z,3.16
2023-10-05T02:55:17.064Z,3.28
2023-10-05T02:58:02.575Z,3.51
2023-10-05T03:00:48.268Z,3.19
2023-10-05T03:03:33.611Z,3.13
2023-10-05T03:06:18.668Z,3.42
2023-10-05T03:09:04.417Z,3.26
2023-10-05T03:11:49.789Z,3.14
2023-10-05T03:14:34.886Z,3.08
2023-10-05T03:17:19.769Z,2.99
2023-10-05T03:20:05.180Z,3.15
2023-10-05T03:22:50.634Z,3.08
2023-10-05T03:25:36.193Z,2.91
2023-10-05T03:28:21.687Z,3.12
2023-10-05T03:31:07.361Z,3.27
2023-10-05T03:33:52.817Z,3.08
2023-10-05T03:36:38.162Z,3.04
2023-10-05T03:39:23.680Z,3.22
2023-10-05T03:42:09.267Z,3.20
2023-10-05T03:44:54.185Z,2.95
2023-10-05T03:47:39.794Z,3.20
2023-10-05T03:50:25.352Z,3.08
2023-10-05T03:53:10.463Z,3.41
2023-10-05T03:55:55.380Z,3.20
2023-10-05T03:58:40.923Z,3.11
2023-10-05T04:01:26.552Z,3.04
2023-10-05T04:04:11.987Z,3.00
2023-10-05T04:06:57.570Z,3.15
2023-10-05T04:09:42.851Z,3.11
2023-10-05T04:12:28.377Z,3.12
2023-10-05T04:15:13.366Z,3.15
2023-10-05T04:17:58.852Z,3.13
2023-10-05T04:20:44.297Z,3.26
2023-10-05T04:23:29.380Z,3.09
2023-10-05T04:26:14.737Z,3.00
2023-10-05T04:28:59.774Z,3.13
2023-10-05T04:31:45.232Z,3.05
2023-10-05T04:34:30.383Z,3.09
2023-10-05T04:37:15.886Z,3.07
2023-10-05T04:40:01.413Z,3.12
2023-10-05T04:42:46.777Z,3.12
2023-10-05T04:45:31.800Z,3.08
2023-10-05T04:48:17.369Z,3.15
2023-10-05T04:51:02.957Z,3.14
2023-10-05T04:53:48.327Z,3.24
2023-10-05T04:56:33.853Z,3.21
2023-10-05T04:59:18.839Z,3.50
2023-10-05T05:02:04.326Z,3.23
2023-10-05T05:04:49.892Z,3.24
2023-10-05T05:07:35.492Z,3.11
2023-10-05T05:10:20.863Z,3.49
2023-10-05T05:13:06.501Z,3.21
2023-10-05T05:15:51.876Z,3.22
2023-10-05T05:18:36.917Z,3.10
2023-10-05T05:21:22.430Z,3.34
2023-10-05T05:24:07.427Z,3.22
2023-10-05T05:26:52.619Z,3.15
2023-10-05T05:29:38.045Z,3.28
2023-10-05T05:32:23.071Z,3.33
2023-10-05T05:35:08.588Z,3.31
2023-10-05T05:37:53.584Z,3.64
2023-10-05T05:40:39.030Z,3.31
2023-10-05T05:43:24.478Z,3.89
2023-10-05T05:46:09.987Z,3.87
2023-10-05T05:48:55.354Z,3.68
2023-10-05T05:51:40.965Z,4.01
2023-10-05T05:54:25.968Z,4.09
2023-10-05T05:57:11.456Z,3.99
2023-10-05T05:59:56.996Z,3.72
2023-10-05T06:02:42.345Z,3.57
2023-10-05T06:05:27.678Z,3.86
2023-10-05T06:08:13.224Z,3.68
2023-10-05T06:10:58.439Z,3.63
2023-10-05T06:13:44.086Z,3.76
2023-10-05T06:16:29.560Z,3.77
2023-10-05T06:19:15.179Z,3.56
2023-10-05T06:22:00.296Z,3.50
2023-10-05T06:24:45.754Z,3.75
2023-10-05T06:27:31.398Z,3.75
2023-10-05T06:30:16.351Z,4.01
2023-10-05T06:33:01.882Z,3.71
2023-10-05T06:35:47.362Z,3.71
2023-10-05T06:38:32.667Z,3.79
2023-10-05T06:41:18.277Z,3.70
2023-10-05T06:44:03.797Z,3.88
2023-10-05T06:46:48.818Z,4.28
2023-10-05T06:49:34.174Z,4.06
2023-10-05T06:52:19.538Z,4.23
2023-10-05T06:55:05.122Z,4.47
2023-10-05T06:57:50.564Z,4.27
2023-10-05T07:00:36.249Z,4.31
2023-10-05T07:03:21.784Z,4.39
2023-10-05T07:06:07.197Z,4.57
2023-10-05T07:08:52.765Z,4.55
2023-10-05T07:11:38.271Z,4.56
2023-10-05T07:14:26.158Z,4.38
2023-10-05T07:17:11.833Z,4.33
2023-10-05T07:19:57.400Z,4.36
2023-10-05T07:22:42.894Z,4.08
2023-10-05T07:25:28.237Z,3.82
2023-10-05T07:28:13.848Z,3.94
2023-10-05T07:30:59.470Z,4.13
2023-10-05T07:33:45.047Z,4.01
2023-10-05T07:36:30.521Z,4.06
2023-10-05T07:39:15.954Z,4.12
2023-10-05T07:42:01.569Z,3.96
2023-10-05T07:44:46.927Z,3.95
2023-10-05T07:47:32.569Z,3.77
2023-10-05T07:50:17.545Z,4.10
2023-10-05T07:53:03.027Z,3.84
2023-10-05T07:55:48.077Z,4.00
2023-10-05T07:58:33.448Z,4.15
2023-10-05T08:01:18.962Z,3.82
2023-10-05T08:04:04.457Z,3.87
2023-10-05T08:06:49.711Z,4.02
2023-10-05T08:09:35.244Z,4.00
2023-10-05T08:12:20.636Z,3.79
2023-10-05T08:15:06.233Z,4.05
2023-10-05T08:17:51.489Z,3.97
2023-10-05T08:20:37.266Z,4.32
2023-10-05T08:23:24.061Z,4.37
2023-10-05T08:26:09.380Z,4.69
2023-10-05T08:28:54.888Z,4.07
2023-10-05T08:31:40.390Z,4.18
2023-10-05T08:34:25.943Z,4.13
2023-10-05T08:37:11.324Z,3.95
2023-10-05T08:39:56.795Z,4.56
2023-10-05T08:42:42.318Z,4.36
2023-10-05T08:45:27.615Z,4.43
2023-10-05T08:48:13.197Z,4.13
2023-10-05T08:50:58.833Z,3.79
2023-10-05T08:53:43.740Z,3.81
2023-10-05T08:56:29.277Z,4.03
2023-10-05T08:59:14.695Z,4.16
2023-10-05T09:01:59.803Z,4.04
2023-10-05T09:04:45.117Z,3.78
2023-10-05T09:07:30.663Z,4.25
2023-10-05T09:10:16.326Z,4.35
2023-10-05T09:13:01.823Z,4.21
2023-10-05T09:15:47.391Z,4.10
2023-10-05T09:18:34.612Z,4.66
2023-10-05T09:21:19.910Z,4.41
2023-10-05T09:24:05.764Z,4.33
2023-10-05T09:26:51.491Z,4.83
2023-10-05T09:29:37.148Z,4.85
2023-10-05T09:32:22.609Z,4.64
2023-10-05T09:35:11.961Z,4.86
2023-10-05T09:37:58.363Z,4.94
2023-10-05T09:40:43.979Z,4.91
2023-10-05T09:43:29.276Z,4.50
2023-10-05T09:46:14.876Z,4.35
2023-10-05T09:49:00.112Z,4.29
2023-10-05T09:51:45.679Z,4.47
2023-10-05T09:54:31.177Z,4.64
2023-10-05T09:57:16.656Z,4.71
2023-10-05T10:00:02.146Z,4.66
2023-10-05T10:02:47.607Z,4.96
2023-10-05T10:05:32.804Z,4.98
2023-10-05T10:08:18.229Z,5.38
2023-10-05T10:11:03.839Z,4.96
2023-10-05T10:13:49.302Z,4.95
2023-10-05T10:16:34.976Z,5.19
2023-10-05T10:19:20.593Z,5.31
2023-10-05T10:22:05.943Z,5.21
2023-10-05T10:24:52.495Z,5.32
2023-10-05T10:27:38.085Z,5.06
2023-10-05T10:30:23.572Z,4.89
2023-10-05T10:33:08.948Z,4.55
2023-10-05T10:35:54.521Z,5.31
2023-10-05T10:38:39.457Z,4.85
2023-10-05T10:41:24.493Z,5.07
2023-10-05T10:44:09.853Z,5.27
2023-10-05T10:46:55.481Z,4.80
2023-10-05T10:49:40.716Z,5.10
2023-10-05T10:52:32.703Z,4.86
2023-10-05T10:55:19.112Z,5.58
2023-10-05T10:58:04.580Z,5.60
2023-10-05T11:00:49.900Z,5.58
2023-10-05T11:03:35.749Z,5.10
2023-10-05T11:06:20.970Z,5.31
2023-10-05T11:09:06.716Z,5.64
2023-10-05T11:11:52.467Z,5.83
2023-10-05T11:14:37.839Z,5.65
2023-10-05T11:17:23.034Z,4.97
2023-10-05T11:20:08.660Z,5.02
2023-10-05T11:22:54.085Z,5.37
2023-10-05T11:25:40.682Z,5.53
2023-10-05T11:28:26.190Z,5.37
2023-10-05T11:31:14.796Z,5.77
2023-10-05T11:35:15.557Z,5.85
2023-10-05T11:37:22.263Z,5.41
2023-10-05T11:40:07.863Z,5.48
2023-10-05T11:42:53.385Z,5.48
2023-10-05T11:45:38.832Z,5.35
2023-10-05T11:48:24.318Z,5.47
2023-10-05T11:51:09.709Z,5.57
2023-10-05T11:53:55.221Z,5.55
2023-10-05T11:56:40.365Z,5.88
2023-10-05T11:59:25.872Z,5.52
2023-10-05T12:02:11.631Z,5.43
2023-10-05T12:04:57.203Z,5.77
2023-10-05T12:07:42.356Z,5.94
2023-10-05T12:10:27.896Z,5.77
2023-10-05T12:13:13.520Z,5.81
2023-10-05T12:15:58.999Z,5.69
2023-10-05T12:18:44.358Z,5.66
2023-10-05T12:21:29.954Z,5.76
2023-10-05T12:24:15.468Z,5.62
2023-10-05T12:27:01.713Z,5.51
2023-10-05T12:29:48.511Z,5.43
2023-10-05T12:32:33.987Z,5.40
2023-10-05T12:35:19.557Z,5.54
2023-10-05T12:38:05.145Z,4.87
2023-10-05T12:40:50.717Z,5.15
2023-10-05T12:43:36.237Z,5.30
2023-10-05T12:46:21.414Z,4.82
2023-10-05T12:49:06.933Z,5.22
2023-10-05T12:51:52.464Z,5.05
2023-10-05T12:54:37.827Z,5.05
2023-10-05T12:57:23.362Z,4.81
2023-10-05T13:00:08.762Z,4.73
2023-10-05T13:02:54.024Z,4.53
2023-10-05T13:05:39.518Z,4.73
2023-10-05T13:08:25.103Z,4.71
2023-10-05T13:11:10.239Z,4.77
2023-10-05T13:13:55.693Z,4.68
2023-10-05T13:16:41.364Z,4.85
2023-10-05T13:19:26.746Z,4.98
2023-10-05T13:22:12.286Z,4.78
2023-10-05T13:24:57.839Z,4.42
2023-10-05T13:27:43.248Z,4.63
2023-10-05T13:30:28.656Z,4.37
2023-10-05T13:33:14.060Z,4.65
2023-10-05T13:35:59.613Z,4.43
2023-10-05T13:38:45.145Z,3.94
2023-10-05T13:41:30.039Z,4.39
2023-10-05T13:44:15.619Z,4.04
2023-10-05T13:47:03.131Z,4.15
2023-10-05T13:49:49.033Z,4.10
2023-10-05T13:52:34.680Z,4.23
2023-10-05T13:55:20.109Z,4.25
2023-10-05T13:58:05.847Z,4.12
2023-10-05T14:00:51.570Z,3.98
2023-10-05T14:03:37.205Z,3.90
2023-10-05T14:06:22.700Z,3.95
2023-10-05T14:09:08.319Z,4.03
2023-10-05T14:11:53.812Z,3.56
2023-10-05T14:14:39.332Z,3.36
2023-10-05T14:17:24.905Z,3.45
2023-10-05T14:20:10.524Z,3.39
2023-10-05T14:22:55.993Z,3.34
2023-10-05T14:25:41.427Z,3.18
2023-10-05T14:28:26.938Z,3.31
2023-10-05T14:31:12.410Z,3.21
2023-10-05T14:33:57.812Z,3.43
2023-10-05T14:36:43.199Z,3.17
2023-10-05T14:39:28.476Z,3.17
2023-10-05T14:42:13.892Z,3.26
2023-10-05T14:44:59.510Z,3.24
2023-10-05T14:47:44.928Z,3.09
2023-10-05T14:50:30.320Z,3.25
2023-10-05T14:53:15.900Z,2.99
2023-10-05T14:56:01.437Z,3.28
2023-10-05T14:58:47.006Z,3.16
2023-10-05T15:01:32.377Z,3.43
2023-10-05T15:04:17.823Z,3.25
2023-10-05T15:07:03.389Z,3.26
2023-10-05T15:09:48.914Z,3.60
2023-10-05T15:12:34.495Z,3.41
2023-10-05T15:15:20.135Z,3.31
2023-10-05T15:18:05.622Z,3.53
2023-10-05T15:20:51.144Z,3.44
2023-10-05T15:23:36.804Z,3.31
2023-10-05T15:26:22.278Z,3.64
2023-10-05T15:29:08.262Z,3.57
2023-10-05T15:31:54.113Z,3.46
2023-10-05T15:34:39.602Z,3.53
2023-10-05T15:37:25.140Z,3.43
2023-10-05T15:40:10.634Z,3.50
2023-10-05T15:42:56.060Z,3.71
2023-10-05T15:45:41.655Z,3.60
2023-10-05T15:48:27.144Z,3.81
2023-10-05T15:51:12.501Z,3.62
2023-10-05T15:53:59.008Z,3.85
2023-10-05T15:56:45.322Z,3.74
2023-10-05T15:59:32.409Z,4.00
2023-10-05T16:02:19.235Z,3.92
2023-10-05T16:05:07.509Z,3.77
2023-10-05T16:07:52.904Z,3.84
2023-10-05T16:10:38.520Z,3.77
2023-10-05T16:13:23.916Z,3.56
2023-10-05T16:16:09.460Z,3.89
2023-10-05T16:18:54.984Z,3.91
2023-10-05T16:21:40.796Z,4.15
2023-10-05T16:24:26.012Z,3.90
2023-10-05T16:27:11.501Z,3.89
2023-10-05T16:29:56.978Z,3.83
2023-10-05T16:32:42.480Z,3.82
2023-10-05T16:35:27.833Z,4.17
2023-10-05T16:38:13.057Z,3.97
2023-10-05T16:40:58.650Z,4.06
2023-10-05T16:43:44.329Z,4.12
2023-10-05T16:46:29.872Z,4.21
2023-10-05T16:49:15.282Z,4.16
2023-10-05T16:52:00.796Z,4.13
2023-10-05T16:54:46.193Z,4.41
2023-10-05T16:57:31.674Z,4.23
2023-10-05T17:00:17.341Z,4.30
2023-10-05T17:03:02.654Z,4.27
2023-10-05T17:05:48.217Z,4.16
2023-10-05T17:08:33.606Z,4.37
2023-10-05T17:11:18.615Z,4.40
2023-10-05T17:14:04.221Z,4.53
2023-10-05T17:16:49.715Z,4.65
2023-10-05T17:19:35.210Z,4.69
2023-10-05T17:22:20.834Z,4.58
2023-10-05T17:25:06.403Z,4.27
2023-10-05T17:27:51.846Z,4.70
2023-10-05T17:30:37.215Z,5.43
2023-10-05T17:33:22.746Z,5.88
2023-10-05T17:36:08.340Z,5.47
2023-10-05T17:38:53.372Z,5.28
2023-10-05T17:41:38.425Z,5.25
2023-10-05T17:44:23.953Z,5.16
2023-10-05T17:47:08.999Z,4.95
2023-10-05T17:49:54.033Z,5.30
2023-10-05T17:52:39.715Z,4.98
2023-10-05T17:58:09.625Z,5.22
2023-10-05T18:00:55.147Z,5.10
2023-10-05T18:03:40.705Z,5.43
2023-10-05T18:06:26.397Z,5.43
2023-10-05T18:09:11.988Z,5.20
2023-10-05T18:11:57.460Z,5.26
2023-10-05T18:14:42.433Z,5.31
2023-10-05T18:17:28.131Z,5.42
2023-10-05T18:20:13.534Z,5.09
2023-10-05T18:22:59.716Z,5.39
2023-10-05T18:25:45.237Z,4.88
2023-10-05T18:28:30.564Z,5.27
2023-10-05T18:31:16.098Z,5.12
2023-10-05T18:34:01.481Z,5.36
2023-10-05T18:36:46.998Z,5.52
2023-10-05T18:39:32.565Z,5.33
2023-10-05T18:42:17.785Z,5.48
2023-10-05T18:45:03.018Z,5.38
2023-10-05T18:47:48.927Z,5.25
2023-10-05T18:50:34.470Z,5.65
2023-10-05T18:53:19.990Z,5.38
2023-10-05T18:56:05.288Z,5.28
2023-10-05T18:58:50.252Z,5.45
2023-10-05T19:01:35.709Z,5.38
2023-10-05T19:04:21.203Z,5.22
2023-10-05T19:07:06.786Z,5.43
2023-10-05T19:09:52.232Z,5.71
2023-10-05T19:12:37.325Z,5.23
2023-10-05T19:15:22.917Z,5.41
2023-10-05T19:18:07.803Z,5.34
2023-10-05T19:20:53.235Z,5.18
2023-10-05T19:23:38.634Z,5.42
2023-10-05T19:26:23.773Z,5.29
2023-10-05T19:29:09.247Z,5.11
2023-10-05T19:31:54.417Z,5.24
2023-10-05T19:34:40.023Z,5.29
2023-10-05T19:37:25.305Z,6.03
2023-10-05T19:40:10.965Z,6.05
2023-10-05T19:42:56.439Z,6.55
2023-10-05T19:45:41.828Z,6.82
2023-10-05T19:48:27.167Z,6.13
2023-10-05T19:51:12.792Z,5.95
2023-10-05T19:53:58.360Z,5.98
2023-10-05T19:56:43.449Z,5.52
2023-10-05T19:59:29.004Z,5.70
2023-10-05T20:02:14.500Z,5.47
2023-10-05T20:04:59.861Z,5.61
2023-10-05T20:07:45.412Z,5.80
2023-10-05T20:10:31.026Z,5.79
2023-10-05T20:13:16.410Z,5.84
2023-10-05T20:16:01.649Z,5.90
2023-10-05T20:18:47.285Z,5.56
2023-10-05T20:21:32.744Z,5.99
2023-10-05T20:24:18.126Z,5.73
2023-10-05T20:27:03.700Z,6.00
2023-10-05T20:29:49.073Z,6.05
2023-10-05T20:32:34.303Z,5.72
2023-10-05T20:35:19.697Z,5.89
2023-10-05T20:38:05.400Z,6.00
2023-10-05T20:40:50.880Z,5.78
2023-10-05T20:43:36.206Z,5.79
2023-10-05T20:46:21.764Z,5.90
2023-10-05T20:49:07.309Z,5.79
2023-10-05T20:51:52.696Z,5.62
2023-10-05T20:54:37.749Z,5.74
2023-10-05T20:57:23.265Z,5.65
2023-10-05T21:00:08.894Z,5.99
2023-10-05T21:02:54.379Z,5.79
2023-10-05T21:05:39.869Z,5.98
2023-10-05T21:08:25.315Z,5.61
2023-10-05T21:11:10.316Z,5.79
2023-10-05T21:13:55.420Z,5.91
2023-10-05T21:16:40.833Z,5.85
2023-10-05T21:19:26.345Z,6.10
2023-10-05T21:22:11.738Z,5.44
2023-10-05T21:24:57.153Z,5.59
2023-10-05T21:27:42.661Z,5.56
2023-10-05T21:30:28.142Z,5.24
2023-10-05T21:33:13.644Z,5.32
2023-10-05T21:35:59.185Z,5.26
2023-10-05T21:38:44.747Z,5.11
2023-10-05T21:41:30.236Z,5.09
2023-10-05T21:44:15.811Z,5.13
2023-10-05T21:47:01.327Z,4.94
2023-10-05T21:49:46.767Z,5.11
2023-10-05T21:52:32.234Z,5.04
2023-10-05T21:55:17.306Z,5.03
2023-10-05T21:58:02.898Z,4.99
2023-10-05T22:00:48.514Z,5.52
2023-10-05T22:03:33.999Z,4.86
2023-10-05T22:06:19.978Z,4.89
2023-10-05T22:09:05.675Z,4.78
2023-10-05T22:11:51.137Z,4.90
2023-10-05T22:14:36.651Z,4.82
2023-10-05T22:17:22.056Z,4.53
2023-10-05T22:20:07.581Z,4.52
2023-10-05T22:22:53.066Z,4.61
2023-10-05T22:25:38.704Z,4.79
2023-10-05T22:28:24.243Z,4.62
2023-10-05T22:31:09.079Z,4.68
2023-10-05T22:33:54.441Z,4.28
2023-10-05T22:36:39.909Z,4.80
2023-10-05T22:39:25.032Z,4.74
2023-10-05T22:42:10.251Z,4.43
2023-10-05T22:44:55.844Z,4.65
2023-10-05T22:47:40.873Z,4.63
2023-10-05T22:50:26.223Z,4.67
2023-10-05T22:53:11.329Z,4.80
2023-10-05T22:55:56.287Z,4.43
2023-10-05T22:58:41.723Z,4.70
2023-10-05T23:01:27.287Z,4.57
2023-10-05T23:04:12.650Z,4.73
2023-10-05T23:06:57.735Z,4.44
2023-10-05T23:09:42.695Z,4.21
2023-10-05T23:12:27.738Z,4.56
2023-10-05T23:15:13.251Z,4.54
2023-10-05T23:17:58.432Z,4.49
2023-10-05T23:20:44.160Z,4.50
2023-10-05T23:23:29.622Z,4.63
2023-10-05T23:26:15.227Z,4.94
2023-10-05T23:29:00.719Z,4.69
2023-10-05T23:31:46.388Z,4.36
2023-10-05T23:34:31.864Z,4.65
2023-10-05T23:37:17.267Z,4.41
2023-10-05T23:40:02.280Z,4.42
2023-10-05T23:42:47.290Z,4.34
2023-10-05T23:45:32.934Z,4.14
2023-10-05T23:48:17.882Z,4.24
2023-10-05T23:51:03.472Z,4.59
2023-10-05T23:53:48.509Z,4.53
2023-10-05T23:56:33.557Z,4.37
2023-10-05T23:59:19.201Z,4.33
